createdAt,value
2023-01-25T01:24:03.589Z,-2.39
2023-01-25T01:26:33.228Z,-2.29
2023-01-25T01:29:01.175Z,-2.26
2023-01-25T01:31:29.493Z,-2.19
2023-01-25T01:34:12.653Z,-2.13
2023-01-25T01:36:41.087Z,-2.07
2023-01-25T01:39:09.127Z,-2.02
2023-01-25T01:41:37.221Z,-1.98
2023-01-25T01:44:05.924Z,-1.99
2023-01-25T01:46:37.638Z,-1.94
2023-01-25T01:49:15.196Z,-1.92
2023-01-25T01:51:50.142Z,-1.89
2023-01-25T01:54:34.252Z,-1.85
2023-01-25T01:57:06.691Z,-1.82
2023-01-25T01:59:41.916Z,-1.79
2023-01-25T02:02:09.783Z,-1.76
2023-01-25T02:04:38.011Z,-1.75
2023-01-25T02:07:17.895Z,-1.70
2023-01-25T02:09:48.628Z,-1.69
2023-01-25T02:12:16.685Z,-1.68
2023-01-25T02:14:45.769Z,-1.63
2023-01-25T02:17:14.779Z,-1.62
2023-01-25T02:20:13.956Z,-1.64
2023-01-25T02:22:57.131Z,-1.67
2023-01-25T02:25:25.114Z,-1.70
2023-01-25T02:27:59.030Z,-1.72
2023-01-25T02:30:30.504Z,-1.74
2023-01-25T02:32:58.471Z,-1.82
2023-01-25T02:35:43.454Z,-1.87
2023-01-25T02:38:16.187Z,-1.88
2023-01-25T02:40:49.622Z,-1.95
2023-01-25T02:43:21.180Z,-2.03
2023-01-25T02:45:50.770Z,-2.14
2023-01-25T02:48:18.706Z,-2.19
2023-01-25T02:50:46.699Z,-2.22
2023-01-25T02:53:14.643Z,-2.22
2023-01-25T02:55:42.553Z,-2.23
2023-01-25T02:58:10.394Z,-2.28
2023-01-25T03:00:38.300Z,-2.36
2023-01-25T03:03:06.451Z,-2.42
2023-01-25T03:05:35.663Z,-2.53
2023-01-25T03:08:03.970Z,-2.61
2023-01-25T03:10:32.641Z,-2.67
2023-01-25T03:13:00.759Z,-2.67
2023-01-25T03:15:28.801Z,-2.64
2023-01-25T03:17:57.641Z,-2.61
2023-01-25T03:20:26.546Z,-2.57
2023-01-25T03:22:55.246Z,-2.53
2023-01-25T03:25:23.399Z,-2.54
2023-01-25T03:27:58.161Z,-2.54
2023-01-25T03:30:26.482Z,-2.49
2023-01-25T03:32:54.784Z,-2.45
2023-01-25T03:35:22.882Z,-2.43
2023-01-25T03:37:50.847Z,-2.41
2023-01-25T03:40:19.130Z,-2.39
2023-01-25T03:42:50.548Z,-2.36
2023-01-25T03:45:18.910Z,-2.35
2023-01-25T03:47:47.058Z,-2.38
2023-01-25T03:50:15.898Z,-2.41
2023-01-25T03:52:59.896Z,-2.44
2023-01-25T03:55:31.030Z,-2.50
2023-01-25T03:57:59.239Z,-2.56
2023-01-25T04:00:27.235Z,-2.62
2023-01-25T04:02:57.516Z,-2.64
2023-01-25T04:05:25.589Z,-2.65
2023-01-25T04:07:54.111Z,-2.66
2023-01-25T04:10:29.049Z,-2.68
2023-01-25T04:12:57.128Z,-2.71
2023-01-25T04:15:25.529Z,-2.74
2023-01-25T04:17:56.430Z,-2.77
2023-01-25T04:20:25.330Z,-2.82
2023-01-25T04:22:53.865Z,-2.84
2023-01-25T04:25:24.689Z,-2.81
2023-01-25T04:27:54.318Z,-2.83
2023-01-25T04:30:22.208Z,-2.88
2023-01-25T04:32:50.390Z,-2.89
2023-01-25T04:35:25.354Z,-2.90
2023-01-25T04:37:55.195Z,-2.91
2023-01-25T04:40:25.273Z,-2.96
2023-01-25T04:42:53.370Z,-2.96
2023-01-25T04:45:21.714Z,-2.94
2023-01-25T04:47:50.067Z,-2.91
2023-01-25T04:50:18.088Z,-2.88
2023-01-25T04:52:46.520Z,-2.87
2023-01-25T04:55:14.661Z,-2.86
2023-01-25T04:57:43.810Z,-2.87
2023-01-25T05:00:12.213Z,-2.87
2023-01-25T05:02:40.299Z,-2.89
2023-01-25T05:05:09.117Z,-2.91
2023-01-25T05:07:37.743Z,-2.91
2023-01-25T05:10:06.217Z,-2.91
2023-01-25T05:12:35.761Z,-2.94
2023-01-25T05:15:07.740Z,-2.94
2023-01-25T05:17:36.555Z,-2.91
2023-01-25T05:20:04.851Z,-2.86
2023-01-25T05:22:33.060Z,-2.81
2023-01-25T05:25:02.895Z,-2.76
2023-01-25T05:27:31.133Z,-2.72
2023-01-25T05:30:18.319Z,-2.71
2023-01-25T05:32:54.361Z,-2.79
2023-01-25T05:35:23.275Z,-2.84
2023-01-25T05:37:59.763Z,-2.84
2023-01-25T05:40:28.704Z,-2.85
2023-01-25T05:42:59.785Z,-2.87
2023-01-25T05:45:30.108Z,-2.91
2023-01-25T05:47:58.948Z,-2.90
2023-01-25T05:50:27.096Z,-2.85
2023-01-25T05:53:15.626Z,-2.77
2023-01-25T05:55:43.495Z,-2.73
2023-01-25T05:58:15.048Z,-2.68
2023-01-25T06:00:43.030Z,-2.64
2023-01-25T06:03:13.508Z,-2.60
2023-01-25T06:05:41.949Z,-2.61
2023-01-25T06:08:09.991Z,-2.61
2023-01-25T06:10:50.595Z,-2.59
2023-01-25T06:13:19.031Z,-2.62
2023-01-25T06:15:56.756Z,-2.71
2023-01-25T06:18:43.422Z,-2.79
2023-01-25T06:21:23.323Z,-2.77
2023-01-25T06:23:51.242Z,-2.77
2023-01-25T06:26:19.133Z,-2.73
2023-01-25T06:28:47.858Z,-2.72
2023-01-25T06:31:17.024Z,-2.71
2023-01-25T06:33:49.846Z,-2.68
2023-01-25T06:36:19.214Z,-2.68
2023-01-25T06:38:53.244Z,-2.65
2023-01-25T06:41:22.777Z,-2.64
2023-01-25T06:43:51.363Z,-2.64
2023-01-25T06:46:19.520Z,-2.64
2023-01-25T06:48:47.815Z,-2.66
2023-01-25T06:51:15.873Z,-2.67
2023-01-25T06:53:45.378Z,-2.70
2023-01-25T06:56:15.261Z,-2.71
2023-01-25T06:58:43.508Z,-2.73
2023-01-25T07:01:16.758Z,-2.75
2023-01-25T07:03:44.796Z,-2.75
2023-01-25T14:56:18.976Z,-3.04
2023-01-25T14:58:50.811Z,-2.85
2023-01-25T15:01:35.308Z,-2.79
2023-01-25T15:04:02.057Z,-2.74
2023-01-25T15:06:28.739Z,-2.69
2023-01-25T15:08:58.067Z,-2.66
2023-01-25T15:11:48.311Z,-2.60
2023-01-25T15:14:17.903Z,-2.57
2023-01-25T15:16:44.885Z,-2.54
2023-01-25T15:19:30.124Z,-2.59
2023-01-25T15:21:58.162Z,-2.68
2023-01-25T15:24:24.960Z,-2.78
2023-01-25T15:26:52.121Z,-2.84
2023-01-25T15:29:20.741Z,-2.86
2023-01-25T15:31:48.304Z,-2.83
2023-01-25T15:34:20.317Z,-2.80
2023-01-25T15:36:47.534Z,-2.76
2023-01-25T15:39:15.592Z,-2.71
2023-01-25T15:41:42.228Z,-2.66
2023-01-25T15:44:09.091Z,-2.63
2023-01-25T15:46:35.914Z,-2.61
2023-01-25T15:49:04.837Z,-2.60
2023-01-25T15:51:33.904Z,-2.58
2023-01-25T15:54:01.955Z,-2.57
2023-01-25T15:56:30.461Z,-2.58
2023-01-25T15:59:00.689Z,-2.61
2023-01-25T16:01:28.370Z,-2.63
2023-01-25T16:04:13.526Z,-2.63
2023-01-25T16:06:50.177Z,-2.64
2023-01-25T16:09:28.821Z,-2.64
2023-01-25T16:11:56.616Z,-2.65
2023-01-25T16:14:28.201Z,-2.65
2023-01-25T16:16:57.054Z,-2.64
2023-01-25T16:19:23.705Z,-2.65
2023-01-25T16:21:50.498Z,-2.61
2023-01-25T16:24:17.492Z,-2.59
2023-01-25T16:26:47.003Z,-2.60
2023-01-25T16:29:14.298Z,-2.61
2023-01-25T16:31:41.535Z,-2.60
2023-01-25T16:34:08.055Z,-2.58
2023-01-25T16:36:39.459Z,-2.58
2023-01-25T16:39:21.179Z,-2.57
2023-01-25T16:41:47.907Z,-2.56
2023-01-25T16:44:16.483Z,-2.56
2023-01-25T16:46:43.350Z,-2.56
2023-01-25T16:49:21.078Z,-2.57
2023-01-25T16:51:50.964Z,-2.58
2023-01-25T16:54:19.194Z,-2.60
2023-01-25T16:56:46.328Z,-2.64
2023-01-25T16:59:12.859Z,-2.68
2023-01-25T17:01:40.757Z,-2.69
2023-01-25T17:04:07.963Z,-2.68
2023-01-25T17:06:36.344Z,-2.66
2023-01-25T17:09:20.579Z,-2.64
2023-01-25T17:11:49.029Z,-2.63
2023-01-25T17:14:16.613Z,-2.64
2023-01-25T17:16:44.378Z,-2.67
2023-01-25T17:19:12.518Z,-2.72
2023-01-25T17:21:39.679Z,-2.72
2023-01-25T17:24:06.370Z,-2.73
2023-01-25T17:26:32.916Z,-2.71
2023-01-25T17:29:01.574Z,-2.69
2023-01-25T17:31:30.457Z,-2.69
2023-01-25T17:33:59.559Z,-2.70
2023-01-25T17:36:26.012Z,-2.73
2023-01-25T17:38:53.278Z,-2.75
2023-01-25T17:41:20.018Z,-2.77
2023-01-25T17:43:54.073Z,-2.77
2023-01-25T17:46:24.641Z,-2.78
2023-01-25T17:48:54.377Z,-2.75
2023-01-25T17:51:24.973Z,-2.72
2023-01-25T17:53:52.700Z,-2.75
2023-01-25T17:56:19.636Z,-2.80
2023-01-25T17:58:46.077Z,-2.86
2023-01-25T18:01:17.890Z,-2.91
2023-01-25T18:03:45.068Z,-2.95
2023-01-25T18:06:16.091Z,-2.95
2023-01-25T18:08:44.193Z,-2.95
2023-01-25T18:11:14.704Z,-2.99
2023-01-25T18:13:51.354Z,-3.03
2023-01-25T18:16:18.777Z,-3.11
2023-01-25T18:18:45.392Z,-3.11
2023-01-25T18:21:16.428Z,-3.13
2023-01-25T18:23:45.656Z,-3.14
2023-01-25T18:26:26.330Z,-3.16
2023-01-25T18:28:54.555Z,-3.20
2023-01-25T18:31:21.155Z,-3.17
2023-01-25T18:33:47.752Z,-3.15
2023-01-25T18:36:14.996Z,-3.12
2023-01-25T18:38:41.748Z,-3.07
2023-01-25T18:41:09.832Z,-3.03
2023-01-25T18:43:36.401Z,-3.00
2023-01-25T18:46:03.220Z,-2.96
2023-01-25T18:48:30.271Z,-2.94
2023-01-25T18:51:06.878Z,-2.93
2023-01-25T18:53:35.834Z,-2.93
2023-01-25T18:56:21.316Z,-2.91
2023-01-25T18:58:50.384Z,-2.90
2023-01-25T19:01:18.903Z,-2.90
2023-01-25T19:03:45.856Z,-2.84
2023-01-25T19:06:14.795Z,-2.82
2023-01-25T19:08:43.401Z,-2.79
2023-01-25T19:11:16.724Z,-2.75
2023-01-25T19:13:43.470Z,-2.72
2023-01-25T19:16:19.766Z,-2.71
2023-01-25T19:18:49.078Z,-2.67
2023-01-25T19:21:17.011Z,-2.65
2023-01-25T19:23:43.586Z,-2.63
2023-01-25T19:26:11.828Z,-2.64
2023-01-25T19:28:39.992Z,-2.64
2023-01-25T19:31:08.323Z,-2.64
2023-01-25T19:33:35.183Z,-2.65
2023-01-25T19:36:04.006Z,-2.67
2023-01-25T19:38:31.003Z,-2.67
2023-01-25T19:41:04.572Z,-2.66
2023-01-25T19:43:31.215Z,-2.65
2023-01-25T19:46:13.920Z,-2.65
2023-01-25T19:48:42.561Z,-2.63
2023-01-25T19:51:16.294Z,-2.60
2023-01-25T19:53:47.960Z,-2.56
2023-01-25T19:56:16.450Z,-2.54
2023-01-25T19:58:44.068Z,-2.51
2023-01-25T20:01:12.460Z,-2.51
2023-01-25T20:03:39.131Z,-2.48
2023-01-25T20:06:08.984Z,-2.48
2023-01-25T20:08:38.238Z,-2.46
2023-01-25T20:11:19.391Z,-2.46
2023-01-25T20:13:46.867Z,-2.45
2023-01-25T20:16:13.597Z,-2.45
2023-01-25T20:18:40.885Z,-2.43
2023-01-25T20:21:10.023Z,-2.43
2023-01-25T20:23:37.958Z,-2.44
2023-01-25T20:26:09.701Z,-2.47
2023-01-25T20:28:36.455Z,-2.55
2023-01-25T20:31:03.440Z,-2.63
2023-01-25T20:33:31.295Z,-2.69
2023-01-25T20:36:02.093Z,-2.72
2023-01-25T20:38:32.484Z,-2.73
2023-01-25T20:41:00.474Z,-2.76
2023-01-25T20:43:28.833Z,-2.79
2023-01-25T20:45:55.659Z,-2.81
2023-01-25T20:48:22.882Z,-2.81
2023-01-25T20:50:49.564Z,-2.82
2023-01-25T20:53:16.156Z,-2.82
2023-01-25T20:55:55.034Z,-2.81
2023-01-25T20:58:24.280Z,-2.78
2023-01-25T21:00:50.715Z,-2.75
2023-01-25T21:03:17.306Z,-2.74
2023-01-25T21:05:57.107Z,-2.74
2023-01-25T21:08:24.110Z,-2.74
2023-01-25T21:10:56.013Z,-2.73
2023-01-25T21:13:23.062Z,-2.72
2023-01-25T21:16:05.868Z,-2.71
2023-01-25T21:18:43.258Z,-2.69
2023-01-25T21:21:13.163Z,-2.70
2023-01-25T21:23:44.058Z,-2.70
2023-01-25T21:26:13.834Z,-2.70
2023-01-25T21:28:41.252Z,-2.69
2023-01-25T21:31:24.412Z,-2.68
2023-01-25T21:33:51.112Z,-2.67
2023-01-25T21:36:18.079Z,-2.65
2023-01-25T21:38:45.774Z,-2.63
2023-01-25T21:41:14.299Z,-2.64
2023-01-25T21:43:59.258Z,-2.65
2023-01-25T21:46:26.358Z,-2.63
2023-01-25T21:49:12.250Z,-2.64
2023-01-25T21:51:46.156Z,-2.64
2023-01-25T21:54:14.323Z,-2.63
2023-01-25T21:56:40.869Z,-2.63
2023-01-25T21:59:07.483Z,-2.63
2023-01-25T22:01:34.732Z,-2.61
2023-01-25T22:04:01.249Z,-2.60
2023-01-25T22:06:28.452Z,-2.58
2023-01-25T22:08:54.982Z,-2.58
2023-01-25T22:11:21.574Z,-2.59
2023-01-25T22:13:48.378Z,-2.64
2023-01-25T22:16:15.013Z,-2.71
2023-01-25T22:18:42.204Z,-2.76
2023-01-25T22:21:19.587Z,-2.77
2023-01-25T22:23:46.152Z,-2.79
2023-01-25T22:26:14.442Z,-2.80
2023-01-25T22:28:45.639Z,-2.79
2023-01-25T22:31:16.977Z,-2.80
2023-01-25T22:33:43.984Z,-2.82
2023-01-25T22:36:11.070Z,-2.84
2023-01-25T22:38:38.776Z,-2.86
2023-01-25T22:41:06.621Z,-2.87
2023-01-25T22:43:34.384Z,-2.88
2023-01-25T22:46:01.300Z,-2.90
2023-01-25T22:48:27.956Z,-2.92
2023-01-25T22:51:06.240Z,-2.93
2023-01-25T22:53:32.947Z,-2.95
2023-01-25T22:56:02.922Z,-2.94
2023-01-25T22:58:29.516Z,-2.93
2023-01-25T23:00:56.011Z,-2.93
2023-01-25T23:03:22.565Z,-2.94
2023-01-25T23:05:49.213Z,-2.94
2023-01-25T23:08:15.720Z,-2.92
2023-01-25T23:10:42.808Z,-2.88
2023-01-25T23:13:09.500Z,-2.84
2023-01-25T23:15:36.033Z,-2.81
2023-01-25T23:18:21.242Z,-2.80
2023-01-25T23:20:47.759Z,-2.80
2023-01-25T23:23:14.289Z,-2.79
2023-01-25T23:25:40.772Z,-2.77
2023-01-25T23:28:07.305Z,-2.77
2023-01-25T23:30:34.404Z,-2.79
2023-01-25T23:33:01.162Z,-2.81
2023-01-25T23:35:27.965Z,-2.81
2023-01-25T23:37:54.489Z,-2.82
2023-01-25T23:40:23.116Z,-2.81
2023-01-25T23:42:49.591Z,-2.82
2023-01-25T23:45:16.897Z,-2.84
2023-01-25T23:47:43.624Z,-2.85
2023-01-25T23:50:11.035Z,-2.87
2023-01-25T23:52:37.654Z,-2.89
2023-01-25T23:55:05.716Z,-2.92
2023-01-25T23:57:32.475Z,-2.90
2023-01-25T23:59:58.949Z,-2.89
